createdAt,value
2017-08-16T00:06:20.201Z,74.74
2017-08-16T00:26:20.684Z,64.18
2017-08-16T00:46:21.183Z,56.60
2017-08-16T01:06:21.615Z,64.67
2017-08-16T01:26:22.155Z,76.12
2017-08-16T01:46:22.436Z,81.24
2017-08-16T02:06:22.966Z,89.17
2017-08-16T02:26:23.463Z,70.67
2017-08-16T02:46:23.999Z,79.41
2017-08-16T03:06:24.518Z,72.04
2017-08-16T03:26:24.990Z,88.11
2017-08-16T03:45:41.998Z,65.24
2017-08-16T04:05:41.509Z,37.39
2017-08-16T04:25:41.929Z,48.67
2017-08-16T04:45:42.425Z,29.81
2017-08-16T05:05:42.728Z,11.97
2017-08-16T05:25:43.199Z,19.93
2017-08-16T05:45:43.662Z,18.79
2017-08-16T06:05:44.206Z,6.79
2017-08-16T06:30:44.880Z,31.60
2017-08-16T06:50:45.497Z,22.00
2017-08-16T07:10:45.917Z,1.85
2017-08-16T07:30:46.417Z,18.43
2017-08-16T07:50:46.889Z,3.57
2017-08-16T08:10:47.387Z,0.03
2017-08-16T08:30:47.822Z,0.00
2017-08-16T08:50:48.354Z,0.00
2017-08-16T09:10:48.811Z,5.95
2017-08-16T09:30:49.321Z,0.57
2017-08-16T09:50:49.872Z,19.97
2017-08-16T10:10:50.395Z,36.67
2017-08-16T10:30:50.808Z,36.24
2017-08-16T10:50:51.199Z,38.72
2017-08-16T11:10:51.754Z,48.71
2017-08-16T11:30:52.122Z,92.48
2017-08-16T11:50:52.635Z,88.97
2017-08-16T12:10:53.181Z,100.00
2017-08-16T12:35:53.865Z,99.80
2017-08-16T12:55:54.389Z,90.66
2017-08-16T13:15:54.933Z,93.70
2017-08-16T13:35:55.456Z,98.79
2017-08-16T13:55:55.942Z,88.58
2017-08-16T14:15:56.485Z,100.00
2017-08-16T14:35:56.994Z,92.29
2017-08-16T14:55:57.386Z,100.00
2017-08-16T15:15:57.882Z,100.00
2017-08-16T15:35:58.447Z,100.00
2017-08-16T15:55:58.994Z,100.00
2017-08-16T16:15:59.517Z,100.00
2017-08-16T16:36:00.016Z,100.00
2017-08-16T16:56:00.491Z,100.00
2017-08-16T17:16:01.015Z,100.00
2017-08-16T17:36:01.491Z,100.00
2017-08-16T17:56:01.922Z,98.38
2017-08-16T18:16:02.420Z,92.98
2017-08-16T18:36:02.995Z,99.79
2017-08-16T18:56:03.511Z,93.86
2017-08-16T19:16:05.035Z,86.62
2017-08-16T19:46:49.091Z,95.32
2017-08-16T20:06:49.745Z,48.75
2017-08-16T20:26:50.131Z,69.16
2017-08-16T20:46:50.685Z,79.37
2017-08-16T21:06:51.152Z,86.24
2017-08-16T21:26:51.390Z,85.59
2017-08-16T21:46:51.868Z,79.60
2017-08-16T22:06:52.344Z,89.72
2017-08-16T22:26:52.889Z,90.29
2017-08-16T22:46:53.324Z,87.60
2017-08-16T23:06:53.718Z,86.63
2017-08-16T23:26:54.219Z,81.47
2017-08-16T23:46:54.725Z,88.24
